Latest Weather Observations for Biloela

IDQ60801

Issued at 11:02 am EST Sunday 26 April 2015 (issued every 30 minutes, with the page automatically refreshed every 10 minutes)

About weather observations | Map of weather stations | Latest weather observations for QLD | Other Formats
Station Details ID: 039089 Name: THANGOOL AIRPORT Lat: -24.49 Lon: 150.57 Height: 193.1 m
Data from the previous 72 hours. | See also: Recent months at Biloela
Date/Time
EST
Temp
°C
App
Temp
°C
Dew
Point
Rel
Hum
%
Delta-T
°C
Wind Press
QNH
hPa
Press
MSL
hPa
Rain
since 9 am
mm
Dir
 
Spd
km/h
Gust
km/h
Spd
kts
Gust
kts
26/11:00am 22.0 17.1 2.2 27 9.4 S 17 26 9 14 1015.7 - 0.0
26/10:30am 21.0 15.6 2.3 29 8.8 SSW 20 32 11 17 1016.2 - 0.0
26/10:00am 20.1 14.7 1.0 28 8.7 SSW 19 35 10 19 1016.5 - 0.0
26/09:30am 19.8 14.4 2.2 31 8.2 S 20 32 11 17 1016.9 - 0.0
26/09:00am 19.2 13.9 3.0 34 7.6 SSW 20 35 11 19 1017.0 1016.3 0.0
26/08:30am 18.3 13.2 3.0 36 7.2 SSW 19 26 10 14 1016.9 - 0.0
26/08:00am 17.3 14.5 2.9 38 6.7 ESE 7 13 4 7 1017.0 - 0.0
26/07:30am 15.4 12.6 3.2 44 5.6 E 7 9 4 5 1016.9 - 0.0
26/07:00am 15.0 12.2 2.2 42 5.7 SE 6 9 3 5 1016.4 - 0.0
26/06:30am 14.0 11.0 1.0 41 5.6 SE 6 9 3 5 1016.2 - 0.0
26/06:00am 14.9 11.6 0.0 36 6.3 SSE 7 11 4 6 1015.7 1014.9 0.0
26/05:30am 16.3 12.3 0.8 35 6.8 SE 11 15 6 8 1015.4 - 0.0
26/05:00am 16.1 12.6 1.4 37 6.5 ESE 9 11 5 6 1015.0 - 0.0
26/04:30am 15.8 12.6 2.9 42 5.9 SSE 9 19 5 10 1014.6 - 0.0
26/04:00am 16.0 13.2 3.4 43 5.8 ESE 7 11 4 6 1014.2 - 0.0
26/03:50am 16.9 13.6 4.6 44 5.9 S 11 22 6 12 1014.1 - 0.0
26/03:30am 11.8 9.7 5.7 66 2.9 ESE 6 9 3 5 1013.8 - 0.0
26/03:00am 15.0 12.9 8.3 64 3.4 E 9 11 5 6 1013.5 1012.7 0.0
26/02:30am 13.9 12.2 7.4 65 3.2 ESE 6 11 3 6 1013.4 - 0.0
26/02:00am 14.7 12.2 8.2 65 3.3 E 11 13 6 7 1013.2 - 0.0
26/01:30am 13.5 11.3 9.2 75 2.2 E 11 13 6 7 1013.0 - 0.0
26/01:00am 14.5 12.1 10.1 75 2.3 E 13 13 7 7 1012.8 - 0.0
26/12:30am 14.9 12.5 9.9 72 2.6 E 13 15 7 8 1012.8 - 0.0
26/12:00am 15.9 14.3 10.2 69 3.0 E 9 13 5 7 1012.7 1011.9 0.0
 
Date/Time
EST
Temp
°C
App
Temp
°C
Dew
Point
Rel
Hum
%
Delta-T
°C
Wind Press
QNH
hPa
Press
MSL
hPa
Rain
since 9 am
mm
Dir
 
Spd
km/h
Gust
km/h
Spd
kts
Gust
kts
25/11:30pm 15.2 13.6 10.2 72 2.6 E 9 13 5 7 1012.8 - 0.0
25/11:00pm 16.2 14.5 9.8 66 3.4 SSE 9 15 5 8 1012.7 - 0.0
25/10:30pm 16.3 15.3 10.2 67 3.2 N 6 9 3 5 1012.6 - 0.0
25/10:00pm 15.5 15.4 9.4 67 3.2 CALM 0 0 0 0 1012.0 - 0.0
25/09:30pm 17.8 16.6 10.2 61 4.1 SE 7 11 4 6 1011.9 - 0.0
25/09:00pm 17.9 16.2 10.0 60 4.2 E 9 11 5 6 1011.9 1011.2 0.0
25/08:30pm 16.8 16.5 10.0 64 3.6 S 2 9 1 5 1011.7 - 0.0
25/08:00pm 17.4 16.2 9.6 60 4.1 SE 6 7 3 4 1011.5 - 0.0
25/07:30pm 19.1 18.8 8.7 51 5.5 CALM 0 0 0 0 1011.0 - 0.0
25/07:00pm 20.4 19.4 8.7 47 6.2 NNW 4 6 2 3 1010.6 - 0.0
25/06:30pm 22.0 20.3 8.2 41 7.3 NW 7 9 4 5 1010.3 - 0.0
25/06:00pm 25.0 23.2 8.1 34 9.1 WNW 7 11 4 6 1010.0 1009.2 0.0
25/05:30pm 27.3 25.2 8.2 30 10.4 W 9 15 5 8 1009.7 - 0.0
25/05:00pm 28.9 26.2 9.1 29 11.1 NW 13 19 7 10 1009.4 - 0.0
25/04:30pm 29.9 26.8 8.9 27 11.8 WNW 15 22 8 12 1009.1 - 0.0
25/04:00pm 30.4 27.3 8.7 26 12.1 WNW 15 28 8 15 1008.8 - 0.0
25/03:30pm 30.4 28.1 10.4 29 11.5 N 13 20 7 11 1008.7 - 0.0
25/03:00pm 30.5 28.4 9.9 28 11.8 N 11 20 6 11 1008.8 1008.0 0.0
25/02:30pm 30.3 28.0 10.3 29 11.5 NNW 13 22 7 12 1008.9 - 0.0
25/02:00pm 30.2 28.4 10.7 30 11.2 N 11 22 6 12 1009.1 - 0.0
25/01:30pm 29.4 26.6 10.0 30 11.0 WNW 15 24 8 13 1009.4 - 0.0
25/01:00pm 29.1 27.5 10.3 31 10.7 N 9 19 5 10 1009.9 - 0.0
25/12:30pm 29.5 28.2 11.1 32 10.6 NNW 9 17 5 9 1010.4 - 0.0
25/12:00pm 28.0 25.8 9.3 31 10.4 WNW 11 17 6 9 1010.9 1010.1 0.0
25/11:30am 27.8 25.8 10.1 33 10.0 NNW 11 17 6 9 1011.3 - 0.0
25/11:00am 26.8 25.7 12.1 40 8.5 WNW 9 17 5 9 1011.9 - 0.0
25/10:30am 26.0 24.2 11.0 39 8.5 N 11 15 6 8 1012.5 - 0.0
25/10:00am 24.8 23.6 11.7 44 7.5 NNW 9 15 5 8 1012.8 - 0.0
25/09:30am 23.9 23.1 11.6 46 7.0 WNW 7 13 4 7 1013.0 - 0.0
25/09:00am 22.3 22.6 10.8 48 6.4 CALM 0 0 0 0 1013.1 1012.3 0.0
25/08:30am 19.7 18.9 11.2 58 4.7 ESE 6 7 3 4 1013.0 - 0.0
25/08:00am 16.4 15.4 10.9 70 3.0 ESE 7 9 4 5 1012.9 - 0.0
25/07:30am 13.9 12.3 10.3 79 1.9 E 9 9 5 5 1012.9 - 0.0
25/07:00am 12.0 10.2 9.6 85 1.2 E 9 11 5 6 1012.7 - 0.0
25/06:30am 10.5 8.9 8.8 89 0.8 E 7 9 4 5 1012.1 - 0.0
25/06:00am 10.7 9.2 9.0 89 0.9 E 7 9 4 5 1011.8 1011.0 0.0
25/05:30am 10.6 9.0 8.7 88 0.9 E 7 9 4 5 1011.5 - 0.0
25/05:00am 10.6 8.6 8.7 88 0.9 E 9 9 5 5 1011.3 - 0.0
25/04:30am 10.8 9.2 8.9 88 1.0 ENE 7 9 4 5 1011.1 - 0.0
25/04:00am 11.0 9.4 8.9 87 1.1 E 7 9 4 5 1011.0 - 0.0
25/03:30am 11.1 9.6 9.0 87 1.1 E 7 9 4 5 1011.1 - 0.0
25/03:00am 11.0 9.1 8.9 87 1.1 ENE 9 9 5 5 1011.0 1010.2 0.0
25/02:30am 11.1 9.6 9.0 87 1.1 E 7 7 4 4 1011.1 - 0.0
25/02:00am 11.8 10.4 9.5 86 1.2 ESE 7 9 4 5 1011.1 - 0.0
25/01:30am 11.5 9.9 8.7 83 1.4 E 7 9 4 5 1011.3 - 0.0
25/01:00am 12.0 10.2 9.6 85 1.2 E 9 11 5 6 1011.4 - 0.0
25/12:30am 11.4 10.8 8.8 84 1.3 E 2 9 1 5 1011.5 - 0.0
25/12:00am 12.8 11.5 9.8 82 1.6 ESE 7 9 4 5 1011.6 1010.8 0.0
 
Date/Time
EST
Temp
°C
App
Temp
°C
Dew
Point
Rel
Hum
%
Delta-T
°C
Wind Press
QNH
hPa
Press
MSL
hPa
Rain
since 9 am
mm
Dir
 
Spd
km/h
Gust
km/h
Spd
kts
Gust
kts
24/11:30pm 12.0 10.4 8.7 80 1.7 E 7 9 4 5 1011.5 - 0.0
24/11:00pm 13.7 12.4 9.9 78 2.0 E 7 9 4 5 1011.6 - 0.0
24/10:30pm 13.3 11.9 9.4 77 2.0 E 7 9 4 5 1011.7 - 0.0
24/10:00pm 13.4 13.1 8.7 73 2.4 CALM 0 0 0 0 1011.8 - 0.0
24/09:30pm 15.4 13.6 9.5 68 3.1 ESE 9 11 5 6 1011.6 - 0.0
24/09:00pm 15.6 13.9 9.9 69 3.0 E 9 11 5 6 1011.5 1010.7 0.0
24/08:30pm 14.9 13.5 9.7 71 2.7 ESE 7 9 4 5 1011.4 - 0.0
24/08:00pm 15.0 13.4 8.9 67 3.1 ESE 7 11 4 6 1011.0 - 0.0
24/07:30pm 16.3 15.3 8.8 61 3.9 W 4 9 2 5 1011.0 - 0.0
24/07:00pm 17.5 17.2 8.6 56 4.6 CALM 0 0 0 0 1010.6 - 0.0
24/06:30pm 19.1 18.8 8.7 51 5.5 CALM 0 0 0 0 1010.1 - 0.0
24/06:00pm 21.8 21.4 8.3 42 7.2 CALM 0 0 0 0 1009.8 1009.0 0.0
24/05:30pm 24.8 23.1 8.3 35 8.9 SW 7 11 4 6 1009.6 - 0.0
24/05:00pm 26.7 24.6 8.2 31 10.1 SW 9 13 5 7 1009.2 - 0.0
24/04:30pm 27.6 24.8 8.5 30 10.5 SW 13 17 7 9 1008.8 - 0.0
24/04:00pm 28.2 25.7 8.0 28 11.0 WSW 11 17 6 9 1008.7 - 0.0
24/03:30pm 28.0 24.9 7.3 27 11.2 WSW 13 22 7 12 1008.6 - 0.0
24/03:00pm 28.0 24.9 7.3 27 11.2 SW 13 20 7 11 1008.7 1007.9 0.0
24/02:30pm 28.9 27.1 8.0 27 11.5 W 7 11 4 6 1008.8 - 0.0
24/02:00pm 28.1 26.5 7.9 28 11.0 S 6 20 3 11 1009.0 - 0.0
24/01:30pm 28.5 25.7 8.7 29 11.0 WSW 13 22 7 12 1009.4 - 0.0
24/01:00pm 27.5 25.5 10.2 34 9.8 WSW 11 20 6 11 1009.8 - 0.0
24/12:30pm 27.1 24.7 9.9 34 9.7 SW 13 20 7 11 1010.2 - 0.0
24/12:00pm 26.4 25.1 10.1 36 9.2 SW 7 11 4 6 1011.1 1010.3 0.0
24/11:30am 25.9 23.9 10.1 37 8.8 W 11 17 6 9 1011.6 - 0.0
24/11:00am 25.1 24.0 10.6 40 8.2 N 7 13 4 7 1011.9 - 0.0
24/10:30am 23.9 22.6 9.9 41 7.7 E 7 11 4 6 1012.5 - 0.0
24/10:00am 23.3 22.5 11.0 46 6.9 E 6 11 3 6 1012.9 - 0.0
24/09:30am 20.9 20.5 11.0 53 5.5 ESE 4 9 2 5 1013.0 - 0.0
24/09:00am 19.3 18.8 12.1 63 4.0 E 6 9 3 5 1013.4 1012.6 0.0
24/08:30am 16.4 16.4 12.4 77 2.2 E 4 9 2 5 1013.5 - 0.0
24/08:00am 14.3 13.6 11.3 82 1.6 ESE 6 7 3 4 1013.4 - 0.0
24/07:30am 13.2 12.1 10.6 84 1.4 E 7 7 4 4 1013.1 - 0.0
24/07:00am 11.1 10.4 10.0 93 0.6 SSE 4 7 2 4 1012.8 - 0.0
24/06:30am 10.2 8.7 9.1 93 0.6 E 7 11 4 6 1012.3 - 0.0
24/06:00am 10.1 8.7 9.0 93 0.5 ESE 6 9 3 5 1012.0 1011.3 0.0
24/05:30am 9.9 9.6 8.5 91 0.7 CALM 0 0 0 0 1011.9 - 0.0
24/05:00am 10.4 8.5 9.0 91 0.7 E 9 11 5 6 1011.3 - 0.0
24/04:30am 10.9 9.7 9.5 91 0.7 E 6 7 3 4 1011.4 - 0.0
24/04:00am 10.5 8.7 9.3 92 0.6 E 9 11 5 6 1011.5 - 0.0
24/03:30am 10.6 9.1 9.2 91 0.7 E 7 7 4 4 1011.5 - 0.0
24/03:00am 10.6 9.2 9.0 90 0.8 E 6 7 3 4 1011.7 1010.9 0.0
24/02:30am 11.0 9.2 9.3 89 0.9 ENE 9 9 5 5 1011.6 - 0.0
24/02:00am 10.8 8.9 8.9 88 1.0 ENE 9 11 5 6 1011.4 - 0.0
24/01:30am 11.5 11.1 9.6 88 1.0 ESE 2 9 1 5 1011.8 - 0.0
24/01:00am 11.7 11.6 9.3 85 1.2 CALM 0 0 0 0 1012.1 - 0.0
24/12:30am 11.5 10.5 8.9 84 1.3 SE 4 7 2 4 1012.2 - 0.0
24/12:00am 12.6 11.2 9.6 82 1.5 ESE 7 9 4 5 1012.3 1011.6 0.0
 
Date/Time
EST
Temp
°C
App
Temp
°C
Dew
Point
Rel
Hum
%
Delta-T
°C
Wind Press
QNH
hPa
Press
MSL
hPa
Rain
since 9 am
mm
Dir
 
Spd
km/h
Gust
km/h
Spd
kts
Gust
kts
23/11:30pm 13.7 11.7 10.3 80 1.8 E 11 13 6 7 1012.5 - 0.0
23/11:00pm 11.7 9.9 9.3 85 1.2 ENE 9 11 5 6 1012.5 - 0.0
23/10:30pm 12.6 11.2 8.9 78 1.9 E 6 9 3 5 1012.5 - 0.0
23/10:00pm 13.0 11.5 9.1 77 2.0 E 7 9 4 5 1012.2 - 0.0
23/09:30pm 14.6 13.2 10.8 78 2.0 ESE 9 11 5 6 1012.2 - 0.0
23/09:00pm 12.7 12.4 8.6 76 2.1 CALM 0 0 0 0 1012.1 1011.4 0.0
23/08:30pm 14.0 13.5 9.2 73 2.5 E 2 6 1 3 1012.1 - 0.0
23/08:00pm 15.7 14.4 9.1 65 3.4 ENE 6 7 3 4 1012.0 - 0.0
23/07:30pm 17.0 16.9 9.4 61 4.0 CALM 0 0 0 0 1011.7 - 0.0
23/07:00pm 18.4 17.5 9.2 55 4.9 S 4 7 2 4 1011.3 - 0.0
23/06:30pm 19.6 18.4 9.5 52 5.4 SSW 6 9 3 5 1011.0 - 0.0
23/06:00pm 20.3 20.1 8.9 48 6.1 CALM 0 6 0 3 1010.6 1009.8 0.0
23/05:30pm 23.4 22.0 9.0 40 7.8 SSW 6 9 3 5 1010.2 - 0.0
23/05:00pm 24.8 23.4 8.7 36 8.7 SSW 6 9 3 5 1010.1 - 0.0
23/04:30pm 26.0 24.1 8.9 34 9.4 S 9 13 5 7 1009.7 - 0.0
23/04:00pm 25.9 23.9 8.8 34 9.4 SSE 9 15 5 8 1009.6 - 0.0
23/03:30pm 25.8 23.3 8.3 33 9.5 S 11 17 6 9 1009.6 - 0.0
23/03:00pm 25.8 23.7 8.3 33 9.5 SW 9 17 5 9 1010.0 1009.2 0.0
23/02:30pm 25.7 23.0 9.1 35 9.1 SW 13 22 7 12 1010.2 - 0.0
23/02:00pm 25.4 23.3 8.4 34 9.2 SSE 9 22 5 12 1010.5 - 0.0
23/01:30pm 25.6 23.4 9.4 36 8.9 SSW 11 19 6 10 1010.8 - 0.0
23/01:00pm 25.8 24.0 9.6 36 9.0 SW 9 17 5 9 1011.4 - 0.0
23/12:30pm 24.2 20.9 8.2 36 8.6 SSW 15 22 8 12 1012.1 - 0.0
23/12:00pm 24.5 23.1 9.6 39 8.2 SSE 7 13 4 7 1012.7 1011.9 0.0
23/11:30am 23.4 20.8 9.4 41 7.6 S 13 20 7 11 1013.4 - 0.0

Other Formats:

Comma delimited format used in spreadsheet applications
http://www.bom.gov.au/fwo/IDQ60801/IDQ60801.94376.axf

JavaScript Object Notation format (JSON) in row-major order
http://www.bom.gov.au/fwo/IDQ60801/IDQ60801.94376.json